createdAt,value
2017-04-08T00:00:26.509Z,11.87
2017-04-08T00:01:26.848Z,11.94
2017-04-08T00:02:26.577Z,11.9
2017-04-08T00:03:26.916Z,11.96
2017-04-08T00:04:26.951Z,11.93
2017-04-08T00:05:26.687Z,11.99
2017-04-08T00:06:26.733Z,12.05
2017-04-08T00:07:26.756Z,11.86
2017-04-08T00:08:27.397Z,11.9
2017-04-08T00:09:26.837Z,11.9
2017-04-08T00:10:26.864Z,11.94
2017-04-08T00:11:27.222Z,11.96
2017-04-08T00:12:27.289Z,12.01
2017-04-08T00:13:26.980Z,12.01
2017-04-08T00:14:27.010Z,11.96
2017-04-08T00:15:27.049Z,12.01
2017-04-08T00:16:27.397Z,11.94
2017-04-08T00:17:27.117Z,11.94
2017-04-08T00:18:27.464Z,11.93
2017-04-08T00:19:27.492Z,12.02
2017-04-08T00:20:27.228Z,11.99
2017-04-08T00:21:27.262Z,12.02
2017-04-08T00:22:27.301Z,12.05
2017-04-08T00:23:27.330Z,11.9
2017-04-08T00:24:27.370Z,11.96
2017-04-08T00:25:27.409Z,12.02
2017-04-08T00:26:27.446Z,12.06
2017-04-08T00:27:27.476Z,12.05
2017-04-08T00:28:27.516Z,11.96
2017-04-08T00:29:27.550Z,11.99
2017-04-08T00:30:27.591Z,11.97
2017-04-08T00:31:27.934Z,12.02
2017-04-08T00:32:27.659Z,11.96
2017-04-08T00:33:27.997Z,12.06
2017-04-08T00:34:28.042Z,11.99
2017-04-08T00:35:27.780Z,12.01
2017-04-08T00:36:27.809Z,12.04
2017-04-08T00:37:28.444Z,12.04
2017-04-08T00:38:34.156Z,11.96
2017-04-08T00:39:27.921Z,12.04
2017-04-08T00:40:28.257Z,12.06
2017-04-08T00:41:27.998Z,12.09
2017-04-08T00:42:28.022Z,12.08
2017-04-08T00:43:28.146Z,12.05
2017-04-08T00:44:28.402Z,12.06
2017-04-08T00:45:28.430Z,12.05
2017-04-08T00:46:28.166Z,12.01
2017-04-08T00:47:28.204Z,12.08
2017-04-08T00:48:28.238Z,12.15
2017-04-08T00:49:28.582Z,12.09
2017-04-08T00:50:28.620Z,12.02
2017-04-08T00:51:28.345Z,12.12
2017-04-08T00:52:28.384Z,12.12
2017-04-08T00:53:28.419Z,12.08
2017-04-08T00:54:28.458Z,12.08
2017-04-08T00:55:28.498Z,12.05
2017-04-08T00:56:28.528Z,12.09
2017-04-08T00:57:28.566Z,12.06
2017-04-08T00:58:28.597Z,12.12
2017-04-08T00:59:28.946Z,12.05
2017-04-08T01:00:28.670Z,11.93
2017-04-08T01:01:28.714Z,12.01
2017-04-08T01:02:28.746Z,12.01
2017-04-08T01:03:28.782Z,11.97
2017-04-08T01:04:29.128Z,11.97
2017-04-08T01:05:28.864Z,12.01
2017-04-08T01:06:28.947Z,12.08
2017-04-08T01:07:28.923Z,12.02
2017-04-08T01:08:28.966Z,12.02
2017-04-08T01:09:29.031Z,11.97
2017-04-08T01:10:29.339Z,12.01
2017-04-08T01:11:29.071Z,12.05
2017-04-08T01:12:29.127Z,12.01
2017-04-08T01:13:29.144Z,12.02
2017-04-08T01:14:29.520Z,12.01
2017-04-08T01:15:29.219Z,11.99
2017-04-08T01:16:29.251Z,12.01
2017-04-08T01:17:29.288Z,12.04
2017-04-08T01:18:29.631Z,12.01
2017-04-08T01:19:29.681Z,12.06
2017-04-08T01:20:29.396Z,12.08
2017-04-08T01:21:29.432Z,12.04
2017-04-08T01:22:29.809Z,12.01
2017-04-08T01:23:29.500Z,12.06
2017-04-08T01:24:29.537Z,12.08
2017-04-08T01:25:29.578Z,12.13
2017-04-08T01:26:29.616Z,11.99
2017-04-08T01:27:29.948Z,12.01
2017-04-08T01:28:29.984Z,12.08
2017-04-08T01:29:29.725Z,12.04
2017-04-08T01:30:30.062Z,12.02
2017-04-08T01:31:29.805Z,12.01
2017-04-08T01:32:29.833Z,12.06
2017-04-08T01:33:29.898Z,12.08
2017-04-08T01:34:29.911Z,12.05
2017-04-08T01:35:30.242Z,11.96
2017-04-08T01:36:29.972Z,11.93
2017-04-08T01:37:30.012Z,12.02
2017-04-08T01:38:30.364Z,12.02
2017-04-08T01:39:30.389Z,12.01
2017-04-08T01:40:30.117Z,12.05
2017-04-08T01:41:30.155Z,12.01
2017-04-08T01:42:30.193Z,12.01
2017-04-08T01:43:30.869Z,12.01
2017-04-08T01:44:30.566Z,11.94
2017-04-08T01:45:30.605Z,11.99
2017-04-08T01:46:30.356Z,11.89
2017-04-08T01:47:30.670Z,11.83
2017-04-08T01:48:30.405Z,11.99
2017-04-08T01:49:30.448Z,11.94
2017-04-08T01:50:30.789Z,11.97
2017-04-08T01:51:30.819Z,12.02
2017-04-08T01:52:30.860Z,12.01
2017-04-08T01:53:30.592Z,11.94
2017-04-08T01:54:30.625Z,11.96
2017-04-08T01:55:30.969Z,12.01
2017-04-08T01:56:30.697Z,11.87
2017-04-08T01:57:30.735Z,11.94
2017-04-08T01:58:31.069Z,11.9
2017-04-08T01:59:30.813Z,11.97
2017-04-08T02:00:30.838Z,11.87
2017-04-08T02:01:31.193Z,11.86
2017-04-08T02:02:30.924Z,11.86
2017-04-08T02:03:30.950Z,11.86
2017-04-08T02:04:31.284Z,11.86
2017-04-08T02:05:31.034Z,11.86
2017-04-08T02:06:31.061Z,11.96
2017-04-08T02:07:31.406Z,11.74
2017-04-08T02:08:31.129Z,11.75
2017-04-08T02:09:31.167Z,11.8
2017-04-08T02:10:31.210Z,11.87
2017-04-08T02:11:31.239Z,11.74
2017-04-08T02:12:31.579Z,11.8
2017-04-08T02:13:31.618Z,11.89
2017-04-08T02:14:31.347Z,11.83
2017-04-08T02:15:31.383Z,11.86
2017-04-08T02:16:31.726Z,11.83
2017-04-08T02:17:31.755Z,11.83
2017-04-08T02:18:31.495Z,11.8
2017-04-08T02:19:31.554Z,11.82
2017-04-08T02:20:31.561Z,11.71
2017-04-08T02:21:31.595Z,11.83
2017-04-08T02:22:31.680Z,11.85
2017-04-08T02:23:31.676Z,11.83
2017-04-08T02:24:32.012Z,11.83
2017-04-08T02:25:31.742Z,11.83
2017-04-08T02:26:31.785Z,11.7
2017-04-08T02:27:31.814Z,11.62
2017-04-08T02:28:32.158Z,11.61
2017-04-08T02:29:32.547Z,11.68
2017-04-08T02:30:31.939Z,11.71
2017-04-08T02:31:31.962Z,11.7
2017-04-08T02:32:31.997Z,11.67
2017-04-08T02:33:32.028Z,11.68
2017-04-08T02:34:32.086Z,11.72
2017-04-08T02:35:32.411Z,11.71
2017-04-08T02:36:32.136Z,11.77
2017-04-08T02:37:32.184Z,11.64
2017-04-08T02:38:32.213Z,11.68
2017-04-08T02:39:32.265Z,11.74
2017-04-08T02:40:32.286Z,11.74
2017-04-08T02:41:32.349Z,11.7
2017-04-08T02:42:32.654Z,11.67
2017-04-08T02:43:32.689Z,11.71
2017-04-08T02:44:32.425Z,11.67
2017-04-08T02:45:32.765Z,11.65
2017-04-08T02:46:32.495Z,11.72
2017-04-08T02:47:32.531Z,11.68
2017-04-08T02:48:32.867Z,11.71
2017-04-08T02:49:32.614Z,11.68
2017-04-08T02:50:32.955Z,11.64
2017-04-08T02:51:32.984Z,11.61
2017-04-08T02:52:32.709Z,11.67
2017-04-08T02:53:32.748Z,11.64
2017-04-08T02:54:32.789Z,11.7
2017-04-08T02:55:33.143Z,11.61
2017-04-08T02:56:32.855Z,11.68
2017-04-08T02:57:32.896Z,11.61
2017-04-08T02:58:33.232Z,11.56
2017-04-08T02:59:32.964Z,11.54
2017-04-08T03:00:33.016Z,11.54
2017-04-08T03:01:33.063Z,11.54
2017-04-08T03:02:33.071Z,11.57
2017-04-08T03:03:33.107Z,11.59
2017-04-08T03:04:33.141Z,11.64
2017-04-08T03:05:33.187Z,11.62
2017-04-08T03:06:33.226Z,11.56
2017-04-08T03:07:33.382Z,11.59
2017-04-08T03:08:33.588Z,11.53
2017-04-08T03:09:33.627Z,11.5
2017-04-08T03:10:33.363Z,11.53
2017-04-08T03:11:33.393Z,11.49
2017-04-08T03:12:33.432Z,11.5
2017-04-08T03:13:33.470Z,11.57
2017-04-08T03:14:33.499Z,11.5
2017-04-08T03:15:33.540Z,11.52
2017-04-08T03:16:33.577Z,11.47
2017-04-08T03:17:33.609Z,11.39
2017-04-08T03:18:33.647Z,11.41
2017-04-08T03:19:33.687Z,11.47
2017-04-08T03:20:34.021Z,11.44
2017-04-08T03:21:33.764Z,11.46
2017-04-08T03:22:33.796Z,11.57
2017-04-08T03:23:33.829Z,11.47
2017-04-08T03:24:33.866Z,11.56
2017-04-08T03:25:34.201Z,11.52
2017-04-08T03:26:33.987Z,11.46
2017-04-08T03:27:33.977Z,11.46
2017-04-08T03:28:34.306Z,11.52
2017-04-08T03:29:34.039Z,11.5
2017-04-08T03:30:34.078Z,11.39
2017-04-08T03:31:34.115Z,11.43
2017-04-08T03:32:34.465Z,11.47
2017-04-08T03:33:34.184Z,11.46
2017-04-08T03:34:34.233Z,11.49
2017-04-08T03:35:34.262Z,11.43
2017-04-08T03:36:34.295Z,11.47
2017-04-08T03:37:34.329Z,11.41
2017-04-08T03:38:34.360Z,11.52
2017-04-08T03:39:34.398Z,11.43
2017-04-08T03:40:34.436Z,11.39
2017-04-08T03:41:34.481Z,11.36
2017-04-08T03:42:34.506Z,11.44
2017-04-08T03:43:34.541Z,11.38
2017-04-08T03:44:34.580Z,11.5
2017-04-08T03:45:34.621Z,11.41
2017-04-08T03:46:34.652Z,11.38
2017-04-08T03:47:34.686Z,11.41
2017-04-08T03:48:34.719Z,11.38
2017-04-08T03:49:34.759Z,11.46
2017-04-08T03:50:35.101Z,11.38
2017-04-08T03:51:34.829Z,11.47
2017-04-08T03:52:34.876Z,11.41
2017-04-08T03:53:34.904Z,11.32
2017-04-08T03:54:34.938Z,11.32
2017-04-08T03:55:34.979Z,11.39
2017-04-08T03:56:35.004Z,11.49
2017-04-08T03:57:35.050Z,11.46
2017-04-08T03:58:35.086Z,11.53
2017-04-08T03:59:35.422Z,11.36
2017-04-08T04:00:35.454Z,11.43
2017-04-08T04:01:35.202Z,11.36
2017-04-08T04:02:35.218Z,11.31
2017-04-08T04:03:35.265Z,11.41
2017-04-08T04:04:35.595Z,11.41
2017-04-08T04:05:35.634Z,11.46
2017-04-08T04:06:35.385Z,11.35
2017-04-08T04:07:35.399Z,11.34
2017-04-08T04:08:35.741Z,11.38
2017-04-08T04:09:35.476Z,11.34
2017-04-08T04:10:35.514Z,11.36
2017-04-08T04:11:35.550Z,11.41
2017-04-08T04:12:35.584Z,11.29
2017-04-08T04:13:35.616Z,11.25
2017-04-08T04:14:35.956Z,11.43
2017-04-08T04:15:35.685Z,11.31
2017-04-08T04:16:36.066Z,11.35
2017-04-08T04:17:36.064Z,11.35
2017-04-08T04:18:36.092Z,11.31
2017-04-08T04:19:35.834Z,11.28
2017-04-08T04:20:35.865Z,11.34
2017-04-08T04:21:35.907Z,11.34
2017-04-08T04:22:35.941Z,11.28
2017-04-08T04:23:36.282Z,11.31
2017-04-08T04:24:36.020Z,11.28
2017-04-08T04:25:36.044Z,11.29
2017-04-08T04:26:36.077Z,11.29
2017-04-08T04:27:36.151Z,11.32
2017-04-08T04:28:36.161Z,11.29
2017-04-08T04:29:36.197Z,11.21
2017-04-08T04:30:36.231Z,11.29
2017-04-08T04:31:36.260Z,11.27
2017-04-08T04:32:36.603Z,11.2
2017-04-08T04:33:36.351Z,11.34
2017-04-08T04:34:36.367Z,11.31
2017-04-08T04:35:36.418Z,11.25
2017-04-08T04:36:36.444Z,11.27
2017-04-08T04:37:36.472Z,11.28
2017-04-08T04:38:36.510Z,11.28
2017-04-08T04:39:36.544Z,11.28
2017-04-08T04:40:36.578Z,11.28
2017-04-08T04:41:36.619Z,11.25
2017-04-08T04:42:36.649Z,11.29
2017-04-08T04:43:36.684Z,11.21
2017-04-08T04:44:36.725Z,11.14
2017-04-08T04:45:36.759Z,11.1
2017-04-08T04:46:36.800Z,11.19
2017-04-08T04:47:37.132Z,11.19
2017-04-08T04:48:36.871Z,11.11
2017-04-08T04:49:36.898Z,11.19
2017-04-08T04:50:36.944Z,11.13
2017-04-08T04:51:36.972Z,11.17
2017-04-08T04:52:37.313Z,11.11
2017-04-08T04:53:37.676Z,11.16
2017-04-08T04:54:37.099Z,11.19
2017-04-08T04:55:37.459Z,11.13
2017-04-08T04:56:37.161Z,11.09
2017-04-08T04:57:37.188Z,11.1
2017-04-08T04:58:37.537Z,11.16
2017-04-08T04:59:37.576Z,11.14
2017-04-08T05:00:37.298Z,11.13
2017-04-08T05:01:37.342Z,11.17
2017-04-08T05:02:37.715Z,11.13
2017-04-08T05:03:37.711Z,11.14
2017-04-08T05:04:37.442Z,11.13
2017-04-08T05:05:37.783Z,11.16
2017-04-08T05:06:37.507Z,11.1
2017-04-08T05:07:37.549Z,11.11
2017-04-08T05:08:37.584Z,11.13
2017-04-08T05:09:37.921Z,11.16
2017-04-08T05:10:37.962Z,11.17
2017-04-08T05:11:37.687Z,11.13
2017-04-08T05:12:37.727Z,11.13
2017-04-08T05:13:37.759Z,11.17
2017-04-08T05:14:37.799Z,11.13
2017-04-08T05:15:38.134Z,11.14
2017-04-08T05:16:37.975Z,11.21
2017-04-08T05:17:37.908Z,11.13
2017-04-08T05:18:37.937Z,11.2
2017-04-08T05:19:37.975Z,11.24
2017-04-08T05:20:38.014Z,11.27
2017-04-08T05:21:38.050Z,11.29
2017-04-08T05:22:38.087Z,11.28
2017-04-08T05:23:38.130Z,11.31
2017-04-08T05:24:38.153Z,11.32
2017-04-08T05:25:38.192Z,11.25
2017-04-08T05:26:38.230Z,11.29
2017-04-08T05:27:38.266Z,11.34
2017-04-08T05:28:38.611Z,11.35
2017-04-08T05:29:38.647Z,11.32
2017-04-08T05:30:38.681Z,11.29
2017-04-08T05:31:38.404Z,11.35
2017-04-08T05:32:38.445Z,11.29
2017-04-08T05:33:38.482Z,11.28
2017-04-08T05:34:38.527Z,11.32
2017-04-08T05:35:38.552Z,11.35
2017-04-08T05:36:38.589Z,11.39
2017-04-08T05:37:38.925Z,11.35
2017-04-08T05:38:38.959Z,11.31
2017-04-08T05:39:38.691Z,11.39
2017-04-08T05:40:38.732Z,11.29
2017-04-08T05:41:38.764Z,11.35
2017-04-08T05:42:39.428Z,11.38
2017-04-08T05:43:39.144Z,11.28
2017-04-08T05:44:39.175Z,11.43
2017-04-08T05:45:39.212Z,11.44
2017-04-08T05:46:38.946Z,11.46
2017-04-08T05:47:39.291Z,11.38
2017-04-08T05:48:39.018Z,11.38
2017-04-08T05:49:39.053Z,11.36
2017-04-08T05:50:39.089Z,11.41
2017-04-08T05:51:39.121Z,11.32
2017-04-08T05:52:39.472Z,11.41
2017-04-08T05:53:39.505Z,11.43
2017-04-08T05:54:39.555Z,11.44
2017-04-08T05:55:39.270Z,11.47
2017-04-08T05:56:39.606Z,11.43
2017-04-08T05:57:39.347Z,11.47
2017-04-08T05:58:39.706Z,11.5
2017-04-08T05:59:39.718Z,11.43
2017-04-08T06:00:39.447Z,11.39
2017-04-08T06:01:39.483Z,11.49
2017-04-08T06:02:39.520Z,11.46
2017-04-08T06:03:39.564Z,11.44
2017-04-08T06:04:39.588Z,11.52
2017-04-08T06:05:39.647Z,11.44
2017-04-08T06:06:39.963Z,11.54
2017-04-08T06:07:39.700Z,11.53
2017-04-08T06:08:39.746Z,11.5
2017-04-08T06:09:39.773Z,11.5
2017-04-08T06:10:40.112Z,11.5
2017-04-08T06:11:39.844Z,11.53
2017-04-08T06:12:40.225Z,11.54
2017-04-08T06:13:39.929Z,11.53
2017-04-08T06:14:39.957Z,11.53
2017-04-08T06:15:39.989Z,11.54
2017-04-08T06:16:40.031Z,11.49
2017-04-08T06:17:40.364Z,11.49
2017-04-08T06:18:40.103Z,11.52
2017-04-08T06:19:40.139Z,11.57
2017-04-08T06:20:40.496Z,11.53
2017-04-08T06:21:40.226Z,11.56
2017-04-08T06:22:40.247Z,11.65
2017-04-08T06:23:40.288Z,11.61
2017-04-08T06:24:40.314Z,11.59
2017-04-08T06:25:40.356Z,11.62
2017-04-08T06:26:40.389Z,11.59
2017-04-08T06:27:40.431Z,11.62
2017-04-08T06:28:40.464Z,11.59
2017-04-08T06:29:40.502Z,11.67
2017-04-08T06:30:40.534Z,11.67
2017-04-08T06:31:40.572Z,11.67
2017-04-08T06:32:40.606Z,11.65
2017-04-08T06:33:40.644Z,11.7
2017-04-08T06:34:40.981Z,11.68
2017-04-08T06:35:40.716Z,11.74
2017-04-08T06:36:40.752Z,11.65
2017-04-08T06:37:40.790Z,11.71
2017-04-08T06:38:40.829Z,11.64
2017-04-08T06:39:40.860Z,11.65
2017-04-08T06:40:40.913Z,11.71
2017-04-08T06:41:40.942Z,11.65
2017-04-08T06:42:41.280Z,11.71
2017-04-08T06:43:41.309Z,11.72
2017-04-08T06:44:41.043Z,11.68
2017-04-08T06:45:41.127Z,11.67
2017-04-08T06:46:41.133Z,11.78
2017-04-08T06:47:41.501Z,11.83
2017-04-08T06:48:41.204Z,11.78
2017-04-08T06:49:41.225Z,11.77
2017-04-08T06:50:41.576Z,11.86
2017-04-08T06:51:41.610Z,11.89
2017-04-08T06:52:41.336Z,11.82
2017-04-08T06:53:41.397Z,11.87
2017-04-08T06:54:41.441Z,11.82
2017-04-08T06:55:41.444Z,11.94
2017-04-08T06:56:41.487Z,11.96
2017-04-08T06:57:41.823Z,11.85
2017-04-08T06:58:42.163Z,11.87
2017-04-08T06:59:41.896Z,11.82
2017-04-08T07:00:41.629Z,11.94
2017-04-08T07:01:41.976Z,11.87
2017-04-08T07:02:41.705Z,11.93
2017-04-08T07:03:41.737Z,11.94
2017-04-08T07:04:41.775Z,11.97
2017-04-08T07:05:41.812Z,12.02
2017-04-08T07:06:41.854Z,12.01
2017-04-08T07:07:42.189Z,11.99
2017-04-08T07:08:41.928Z,12.11
2017-04-08T07:09:41.958Z,12.12
2017-04-08T07:10:42.002Z,12.06
2017-04-08T07:11:42.037Z,12.13
2017-04-08T07:12:42.065Z,12.13
2017-04-08T07:13:42.404Z,12.2
2017-04-08T07:14:42.144Z,12.12
2017-04-08T07:15:42.192Z,12.19
2017-04-08T07:16:42.212Z,12.16
2017-04-08T07:17:42.272Z,12.21
2017-04-08T07:18:42.290Z,12.13
2017-04-08T07:19:42.340Z,12.23
2017-04-08T07:20:42.361Z,12.19
2017-04-08T07:21:42.398Z,12.23
2017-04-08T07:22:42.455Z,12.27
2017-04-08T07:23:42.480Z,12.21
2017-04-08T07:24:42.819Z,12.29
2017-04-08T07:25:42.858Z,12.29
2017-04-08T07:26:42.583Z,12.3
2017-04-08T07:27:42.928Z,12.34
2017-04-08T07:28:42.668Z,12.37
2017-04-08T07:29:43.000Z,12.41
2017-04-08T07:30:42.731Z,12.44
2017-04-08T07:31:42.771Z,12.46
2017-04-08T07:32:42.806Z,12.52
2017-04-08T07:33:42.845Z,12.44
2017-04-08T07:34:42.877Z,12.49
2017-04-08T07:35:42.940Z,12.52
2017-04-08T07:36:42.958Z,12.44
2017-04-08T07:37:42.988Z,12.51
2017-04-08T07:38:43.033Z,12.48
2017-04-08T07:39:43.276Z,12.52
2017-04-08T07:40:43.104Z,12.48
2017-04-08T07:41:43.142Z,12.52
2017-04-08T07:42:43.178Z,12.49
2017-04-08T07:43:43.526Z,12.52
2017-04-08T07:44:43.251Z,12.62
2017-04-08T07:45:43.291Z,12.52
2017-04-08T07:46:43.634Z,12.66
2017-04-08T07:47:43.673Z,12.64
2017-04-08T07:48:43.405Z,12.63
2017-04-08T07:49:43.441Z,12.62
2017-04-08T07:50:43.476Z,12.64
2017-04-08T07:51:43.821Z,12.74
2017-04-08T07:52:43.552Z,12.71
2017-04-08T07:53:43.594Z,12.75
2017-04-08T07:54:43.928Z,12.77
2017-04-08T07:55:43.663Z,12.77
2017-04-08T07:56:43.705Z,12.81
2017-04-08T07:57:43.752Z,12.74
2017-04-08T07:58:43.781Z,12.82
2017-04-08T07:59:44.125Z,12.82
2017-04-08T08:00:43.854Z,12.92
2017-04-08T08:01:43.899Z,12.87
2017-04-08T08:02:43.926Z,12.96
2017-04-08T08:03:43.967Z,12.95
2017-04-08T08:04:44.005Z,12.97
2017-04-08T08:05:44.351Z,12.96
2017-04-08T08:06:44.076Z,12.97
2017-04-08T08:07:44.437Z,13.14
2017-04-08T08:08:44.168Z,13.14
2017-04-08T08:09:44.499Z,13.15
2017-04-08T08:10:44.229Z,13.17
2017-04-08T08:11:44.272Z,13.22
2017-04-08T08:12:44.338Z,13.22
2017-04-08T08:13:44.340Z,13.24
2017-04-08T08:14:44.380Z,13.25
2017-04-08T08:15:44.732Z,13.27
2017-04-08T08:16:44.454Z,13.27
2017-04-08T08:17:44.798Z,13.4
2017-04-08T08:18:44.532Z,13.44
2017-04-08T08:19:44.569Z,13.49
2017-04-08T08:20:44.614Z,13.52
2017-04-08T08:21:44.645Z,13.58
2017-04-08T08:22:44.689Z,13.55
2017-04-08T08:23:44.727Z,13.65
2017-04-08T08:24:44.767Z,13.59
2017-04-08T08:25:44.805Z,13.61
2017-04-08T08:26:44.842Z,13.56
2017-04-08T08:27:45.182Z,13.69
2017-04-08T08:28:44.927Z,13.69
2017-04-08T08:29:44.970Z,13.69
2017-04-08T08:30:44.993Z,13.74
2017-04-08T08:31:45.034Z,13.76
2017-04-08T08:32:45.374Z,13.83
2017-04-08T08:33:45.115Z,13.84
2017-04-08T08:34:45.180Z,13.92
2017-04-08T08:35:45.189Z,13.98
2017-04-08T08:36:45.223Z,14.09
2017-04-08T08:37:45.576Z,14.1
2017-04-08T08:38:45.623Z,14.13
2017-04-08T08:39:45.560Z,14.19
2017-04-08T08:40:45.377Z,14.31
2017-04-08T08:41:45.416Z,14.28
2017-04-08T08:42:45.760Z,14.34
2017-04-08T08:43:45.823Z,14.37
2017-04-08T08:44:45.536Z,14.42
2017-04-08T08:45:45.574Z,14.44
2017-04-08T08:46:45.611Z,14.47
2017-04-08T08:47:46.257Z,14.52
2017-04-08T08:48:46.313Z,14.5
2017-04-08T08:49:46.025Z,14.46
2017-04-08T08:50:45.770Z,14.56
2017-04-08T08:51:45.806Z,14.53
2017-04-08T08:52:45.845Z,14.54
2017-04-08T08:53:45.881Z,14.53
2017-04-08T08:54:45.925Z,14.54
2017-04-08T08:55:46.267Z,14.62
2017-04-08T08:56:46.023Z,14.68
2017-04-08T08:57:46.340Z,14.68
2017-04-08T08:58:46.601Z,14.67
2017-04-08T08:59:46.114Z,14.65
2017-04-08T09:00:46.161Z,14.74
2017-04-08T09:01:46.206Z,14.84
2017-04-08T09:02:46.234Z,14.86
2017-04-08T09:03:46.881Z,14.95
2017-04-08T09:04:46.316Z,14.9
2017-04-08T09:05:46.351Z,14.91
2017-04-08T09:06:46.394Z,14.87
2017-04-08T09:07:46.437Z,14.94
2017-04-08T09:08:46.781Z,14.93
2017-04-08T09:09:46.810Z,14.94
2017-04-08T09:10:46.551Z,14.93
2017-04-08T09:11:46.591Z,15.01
2017-04-08T09:12:47.233Z,15.11
2017-04-08T09:13:46.670Z,15.11
2017-04-08T09:14:46.716Z,14.95
2017-04-08T09:15:46.748Z,15.03
2017-04-08T09:16:46.785Z,15.02
2017-04-08T09:17:46.826Z,15.08
2017-04-08T09:18:47.168Z,14.91
2017-04-08T09:19:46.910Z,14.95
2017-04-08T09:20:46.944Z,14.98
2017-04-08T09:21:46.987Z,14.98
2017-04-08T09:22:47.025Z,15.02
2017-04-08T09:23:47.065Z,15.11
2017-04-08T09:24:47.101Z,15.01
2017-04-08T09:25:47.443Z,15.09
2017-04-08T09:26:47.183Z,15.08
2017-04-08T09:27:47.218Z,15.06
2017-04-08T09:28:47.270Z,15.17
2017-04-08T09:29:47.299Z,15.12
2017-04-08T09:30:47.340Z,15.12
2017-04-08T09:31:47.381Z,15.17
2017-04-08T09:32:47.721Z,15.08
2017-04-08T09:33:47.760Z,15.06
2017-04-08T09:34:47.509Z,15.13
2017-04-08T09:35:47.534Z,15.24
2017-04-08T09:36:47.576Z,15.28
2017-04-08T09:37:48.221Z,15.26
2017-04-08T09:38:47.959Z,15.3
2017-04-08T09:39:47.736Z,15.31
2017-04-08T09:40:47.740Z,15.28
2017-04-08T09:41:47.770Z,15.38
2017-04-08T09:42:48.120Z,15.35
2017-04-08T09:43:47.850Z,15.43
2017-04-08T09:44:47.912Z,15.42
2017-04-08T09:45:48.244Z,15.39
2017-04-08T09:46:47.984Z,15.39
2017-04-08T09:47:48.314Z,15.43
2017-04-08T09:48:48.357Z,15.51
2017-04-08T09:49:48.099Z,15.48
2017-04-08T09:50:48.130Z,15.6
2017-04-08T09:51:48.472Z,15.61
2017-04-08T09:52:48.515Z,15.56
2017-04-08T09:53:48.554Z,15.57
2017-04-08T09:54:48.291Z,15.54
2017-04-08T09:55:48.631Z,15.63
2017-04-08T09:56:48.365Z,15.78
2017-04-08T09:57:48.709Z,15.67
2017-04-08T09:58:48.751Z,15.67
2017-04-08T09:59:48.795Z,15.61
2017-04-08T10:00:48.547Z,15.61
2017-04-08T10:01:48.865Z,15.74
2017-04-08T10:02:48.918Z,15.74
2017-04-08T10:03:48.948Z,15.78
2017-04-08T10:04:48.692Z,15.79
2017-04-08T10:05:48.725Z,15.75
2017-04-08T10:06:49.079Z,15.84
2017-04-08T10:07:48.807Z,15.89
2017-04-08T10:08:49.149Z,15.86
2017-04-08T10:09:48.892Z,15.92
2017-04-08T10:10:48.927Z,15.85
2017-04-08T10:11:49.274Z,16.04
2017-04-08T10:12:49.011Z,16.12
2017-04-08T10:13:49.048Z,16.07
2017-04-08T10:14:49.085Z,16.15
2017-04-08T10:15:49.125Z,16.25
2017-04-08T10:16:49.164Z,16.42
2017-04-08T10:17:49.233Z,16.4
2017-04-08T10:18:49.245Z,16.48
2017-04-08T10:19:49.294Z,16.53
2017-04-08T10:20:49.629Z,16.56
2017-04-08T10:21:49.369Z,16.73
2017-04-08T10:22:49.714Z,16.7
2017-04-08T10:23:49.459Z,16.71
2017-04-08T10:24:49.804Z,16.78
2017-04-08T10:25:49.536Z,16.81
2017-04-08T10:26:49.584Z,16.86
2017-04-08T10:27:49.618Z,16.8
2017-04-08T10:28:49.964Z,16.86
2017-04-08T10:29:50.005Z,16.81
2017-04-08T10:30:49.743Z,16.99
2017-04-08T10:31:49.779Z,16.93
2017-04-08T10:32:50.120Z,16.89
2017-04-08T10:33:49.857Z,16.92
2017-04-08T10:34:49.902Z,16.95
2017-04-08T10:35:49.941Z,17.03
2017-04-08T10:36:49.984Z,17.04
2017-04-08T10:37:50.322Z,16.98
2017-04-08T10:38:50.368Z,17.07
2017-04-08T10:39:50.109Z,17.1
2017-04-08T10:40:50.451Z,17.14
2017-04-08T10:41:50.194Z,17.22
2017-04-08T10:42:50.228Z,17.18
2017-04-08T10:43:50.577Z,17.33
2017-04-08T10:44:50.313Z,17.3
2017-04-08T10:45:50.356Z,17.3
2017-04-08T10:46:50.417Z,17.3
2017-04-08T10:47:50.437Z,17.29
2017-04-08T10:48:50.782Z,17.35
2017-04-08T10:49:50.521Z,17.43
2017-04-08T10:50:50.561Z,17.33
2017-04-08T10:51:50.606Z,17.41
2017-04-08T10:52:50.645Z,17.35
2017-04-08T10:53:50.683Z,17.4
2017-04-08T10:54:50.727Z,17.51
2017-04-08T10:55:50.768Z,17.55
2017-04-08T10:56:51.120Z,17.7
2017-04-08T10:57:50.853Z,17.73
2017-04-08T10:58:50.897Z,17.78
2017-04-08T10:59:50.937Z,17.89
2017-04-08T11:00:50.995Z,18
2017-04-08T11:01:51.022Z,18.03
2017-04-08T11:02:51.061Z,18.03
2017-04-08T11:03:51.110Z,17.89
2017-04-08T11:04:51.143Z,18.04
2017-04-08T11:05:51.500Z,18.17
2017-04-08T11:06:51.262Z,18.07
2017-04-08T11:07:51.601Z,18.12
2017-04-08T11:08:51.321Z,18.22
2017-04-08T11:09:51.365Z,18.21
2017-04-08T11:10:51.401Z,18.19
2017-04-08T11:11:51.447Z,18.22
2017-04-08T11:12:51.491Z,18.24
2017-04-08T11:13:51.542Z,18.37
2017-04-08T11:14:51.569Z,18.28
2017-04-08T11:15:51.619Z,18.34
2017-04-08T11:16:51.658Z,18.21
2017-04-08T11:17:51.704Z,18.37
2017-04-08T11:18:51.740Z,18.29
2017-04-08T11:19:51.787Z,18.39
2017-04-08T11:20:51.823Z,18.4
2017-04-08T11:21:51.868Z,18.31
2017-04-08T11:22:52.232Z,18.46
2017-04-08T11:23:51.952Z,18.43
2017-04-08T11:24:52.047Z,18.42
2017-04-08T11:25:52.037Z,18.52
2017-04-08T11:26:52.085Z,18.43
2017-04-08T11:27:52.429Z,18.59
2017-04-08T11:28:52.469Z,18.49
2017-04-08T11:29:52.219Z,18.65
2017-04-08T11:30:52.254Z,18.61
2017-04-08T11:31:52.296Z,18.65
2017-04-08T11:32:52.648Z,18.64
2017-04-08T11:33:52.389Z,18.67
2017-04-08T11:34:52.424Z,18.7
2017-04-08T11:35:52.769Z,18.58
2017-04-08T11:36:52.506Z,18.57
2017-04-08T11:37:52.564Z,18.58
2017-04-08T11:38:52.591Z,18.55
2017-04-08T11:39:52.638Z,18.61
2017-04-08T11:40:52.678Z,18.59
2017-04-08T11:41:53.027Z,18.64
2017-04-08T11:42:53.060Z,18.47
2017-04-08T11:43:52.804Z,18.49
2017-04-08T11:44:52.842Z,18.52
2017-04-08T11:45:53.191Z,18.47
2017-04-08T11:46:52.956Z,18.46
2017-04-08T11:47:53.271Z,18.49
2017-04-08T11:48:53.011Z,18.42
2017-04-08T11:49:53.356Z,18.39
2017-04-08T11:50:53.226Z,18.44
2017-04-08T11:51:53.145Z,18.44
2017-04-08T11:52:53.193Z,18.31
2017-04-08T11:53:53.223Z,18.39
2017-04-08T11:54:53.566Z,18.29
2017-04-08T11:55:53.308Z,18.31
2017-04-08T11:56:53.350Z,18.22
2017-04-08T11:57:53.690Z,18.15
2017-04-08T11:58:53.434Z,18.24
2017-04-08T11:59:53.488Z,18.1
2017-04-08T12:00:53.821Z,18.21
2017-04-08T12:01:53.570Z,18.24
2017-04-08T12:02:53.900Z,18.29
2017-04-08T12:03:53.639Z,18.24
2017-04-08T12:04:53.678Z,18.29
2017-04-08T12:05:53.720Z,18.27
2017-04-08T12:06:53.763Z,18.33
2017-04-08T12:07:53.806Z,18.27
2017-04-08T12:08:53.842Z,18.36
2017-04-08T12:09:54.191Z,18.31
2017-04-08T12:10:53.931Z,18.27
2017-04-08T12:11:53.969Z,18.27
2017-04-08T12:12:54.010Z,18.25
2017-04-08T12:13:54.055Z,18.29
2017-04-08T12:14:54.090Z,18.21
2017-04-08T12:15:54.135Z,18.22
2017-04-08T12:16:54.179Z,18.25
2017-04-08T12:17:54.216Z,18.21
2017-04-08T12:18:54.258Z,18.19
2017-04-08T12:19:54.299Z,18.13
2017-04-08T12:20:54.641Z,18.15
2017-04-08T12:21:54.386Z,18.09
2017-04-08T12:22:54.422Z,18.15
2017-04-08T12:23:54.463Z,18.18
2017-04-08T12:24:54.810Z,18.06
2017-04-08T12:26:09.467Z,18.03
2017-04-08T12:26:54.596Z,18.07
2017-04-08T12:27:54.633Z,18.18
2017-04-08T12:28:54.668Z,18.03
2017-04-08T12:29:55.020Z,18.03
2017-04-08T12:30:54.956Z,18.04
2017-04-08T12:31:54.793Z,18.02
2017-04-08T12:32:54.873Z,17.88
2017-04-08T12:33:54.872Z,17.88
2017-04-08T12:34:55.122Z,17.79
2017-04-08T12:35:54.967Z,17.81
2017-04-08T12:36:54.997Z,17.74
2017-04-08T12:37:55.048Z,17.69
2017-04-08T12:38:55.683Z,17.67
2017-04-08T12:39:55.152Z,17.71
2017-04-08T12:40:55.164Z,17.63
2017-04-08T12:41:55.202Z,17.57
2017-04-08T12:42:55.242Z,17.51
2017-04-08T12:43:55.298Z,17.51
2017-04-08T12:44:55.321Z,17.53
2017-04-08T12:45:55.364Z,17.53
2017-04-08T12:46:55.405Z,17.47
2017-04-08T12:47:55.446Z,17.5
2017-04-08T12:48:55.490Z,17.51
2017-04-08T12:49:55.521Z,17.46
2017-04-08T12:50:55.568Z,17.47
2017-04-08T12:51:55.600Z,17.51
2017-04-08T12:52:55.713Z,17.4
2017-04-08T12:53:55.888Z,17.55
2017-04-08T12:54:56.031Z,17.54